createdAt,value
2019-05-16T00:00:05.930Z,1017.28
2019-05-16T00:01:05.918Z,1017.32
2019-05-16T00:02:08.061Z,1017.33
2019-05-16T00:03:07.910Z,1017.31
2019-05-16T00:04:08.476Z,1017.28
2019-05-16T00:05:08.239Z,1017.30
2019-05-16T00:06:05.877Z,1017.28
2019-05-16T00:07:07.885Z,1017.30
2019-05-16T00:08:05.886Z,1017.28
2019-05-16T00:09:07.868Z,1017.32
2019-05-16T00:10:08.191Z,1017.23
2019-05-16T00:11:05.836Z,1017.25
2019-05-16T00:12:05.827Z,1017.26
2019-05-16T00:13:08.376Z,1017.26
2019-05-16T00:14:05.813Z,1017.19
2019-05-16T00:15:05.802Z,1017.20
2019-05-16T00:16:07.843Z,1017.22
2019-05-16T00:17:08.181Z,1017.18
2019-05-16T00:18:05.780Z,1017.19
2019-05-16T00:19:05.771Z,1017.16
2019-05-16T00:20:08.950Z,1017.12
2019-05-16T00:21:05.750Z,1017.14
2019-05-16T00:22:05.739Z,1017.13
2019-05-16T00:23:07.791Z,1017.15
2019-05-16T00:24:08.070Z,1017.15
2019-05-16T00:25:05.720Z,1017.13
2019-05-16T00:26:07.705Z,1017.16
2019-05-16T00:27:08.142Z,1017.15
2019-05-16T00:28:05.696Z,1017.15
2019-05-16T00:29:07.875Z,1017.14
2019-05-16T00:30:05.675Z,1017.15
2019-05-16T00:31:08.416Z,1017.14
2019-05-16T00:32:05.662Z,1017.15
2019-05-16T00:33:08.150Z,1017.11
2019-05-16T00:34:05.642Z,1017.15
2019-05-16T00:35:05.630Z,1017.15
2019-05-16T00:36:06.750Z,1017.13
2019-05-16T00:37:05.625Z,1017.13
2019-05-16T00:38:08.183Z,1017.10
2019-05-16T00:39:05.603Z,1017.05
2019-05-16T00:40:08.081Z,1017.09
2019-05-16T00:41:05.583Z,1017.07
2019-05-16T00:42:05.576Z,1017.08
2019-05-16T00:43:07.878Z,1017.03
2019-05-16T00:44:05.557Z,1017.05
2019-05-16T00:45:05.557Z,1016.99
2019-05-16T00:46:05.542Z,1017.04
2019-05-16T00:47:05.536Z,1016.99
2019-05-16T00:48:05.520Z,1016.95
2019-05-16T00:49:05.516Z,1017.02
2019-05-16T00:50:05.508Z,1016.98
2019-05-16T00:51:07.668Z,1017.00
2019-05-16T00:52:07.665Z,1016.90
2019-05-16T00:53:05.483Z,1016.94
2019-05-16T00:54:05.474Z,1016.96
2019-05-16T00:55:05.468Z,1016.99
2019-05-16T00:56:07.789Z,1016.94
2019-05-16T00:57:05.452Z,1016.96
2019-05-16T00:58:05.443Z,1016.93
2019-05-16T00:59:07.781Z,1016.90
2019-05-16T01:00:05.424Z,1016.84
2019-05-16T01:01:05.409Z,1016.88
2019-05-16T01:02:05.405Z,1016.89
2019-05-16T01:03:05.399Z,1016.88
2019-05-16T01:04:07.880Z,1016.84
2019-05-16T01:05:05.375Z,1016.83
2019-05-16T01:06:15.722Z,1016.88
2019-05-16T01:07:07.701Z,1016.85
2019-05-16T01:08:05.354Z,1016.88
2019-05-16T01:09:05.348Z,1016.79
2019-05-16T01:10:05.340Z,1016.79
2019-05-16T01:11:05.332Z,1016.77
2019-05-16T01:12:05.322Z,1016.82
2019-05-16T01:13:05.311Z,1016.73
2019-05-16T01:14:05.303Z,1016.78
2019-05-16T01:15:07.620Z,1016.73
2019-05-16T01:16:05.286Z,1016.70
2019-05-16T01:17:05.279Z,1016.66
2019-05-16T01:18:05.270Z,1016.64
2019-05-16T01:19:05.257Z,1016.66
2019-05-16T01:20:05.248Z,1016.64
2019-05-16T01:21:05.245Z,1016.61
2019-05-16T01:22:05.237Z,1016.64
2019-05-16T01:23:05.233Z,1016.57
2019-05-16T01:24:05.222Z,1016.61
2019-05-16T01:25:05.210Z,1016.62
2019-05-16T01:26:05.202Z,1016.63
2019-05-16T01:27:05.194Z,1016.61
2019-05-16T01:28:05.183Z,1016.62
2019-05-16T01:29:05.179Z,1016.67
2019-05-16T01:30:05.171Z,1016.66
2019-05-16T01:31:05.163Z,1016.60
2019-05-16T01:32:05.153Z,1016.62
2019-05-16T01:33:05.139Z,1016.58
2019-05-16T01:34:05.133Z,1016.58
2019-05-16T01:35:05.127Z,1016.55
2019-05-16T01:36:05.120Z,1016.55
2019-05-16T01:37:05.106Z,1016.55
2019-05-16T01:38:05.099Z,1016.54
2019-05-16T01:39:05.098Z,1016.58
2019-05-16T01:40:05.084Z,1016.54
2019-05-16T01:41:05.081Z,1016.55
2019-05-16T01:42:05.071Z,1016.51
2019-05-16T01:43:05.062Z,1016.52
2019-05-16T01:44:05.054Z,1016.48
2019-05-16T01:45:05.040Z,1016.49
2019-05-16T01:46:05.033Z,1016.56
2019-05-16T01:47:05.027Z,1016.50
2019-05-16T01:48:05.018Z,1016.43
2019-05-16T01:49:05.013Z,1016.44
2019-05-16T01:50:05.006Z,1016.44
2019-05-16T01:51:04.993Z,1016.43
2019-05-16T01:52:04.984Z,1016.40
2019-05-16T01:53:04.978Z,1016.38
2019-05-16T01:54:04.976Z,1016.29
2019-05-16T01:55:04.961Z,1016.33
2019-05-16T01:56:04.952Z,1016.33
2019-05-16T01:57:04.939Z,1016.36
2019-05-16T01:58:04.930Z,1016.33
2019-05-16T01:59:04.924Z,1016.31
2019-05-16T02:00:04.913Z,1016.31
2019-05-16T02:01:12.229Z,1016.35
2019-05-16T02:02:04.901Z,1016.33
2019-05-16T02:03:04.895Z,1016.37
2019-05-16T02:04:04.887Z,1016.35
2019-05-16T02:05:04.874Z,1016.35
2019-05-16T02:06:04.867Z,1016.42
2019-05-16T02:07:04.861Z,1016.36
2019-05-16T02:08:04.853Z,1016.45
2019-05-16T02:09:04.841Z,1016.36
2019-05-16T02:10:04.832Z,1016.33
2019-05-16T02:11:04.821Z,1016.38
2019-05-16T02:12:04.811Z,1016.36
2019-05-16T02:13:04.811Z,1016.34
2019-05-16T02:14:04.799Z,1016.31
2019-05-16T02:15:04.791Z,1016.25
2019-05-16T02:16:04.781Z,1016.31
2019-05-16T02:17:04.770Z,1016.29
2019-05-16T02:18:04.761Z,1016.27
2019-05-16T02:19:04.755Z,1016.30
2019-05-16T02:20:04.746Z,1016.30
2019-05-16T02:21:04.743Z,1016.27
2019-05-16T02:22:04.736Z,1016.29
2019-05-16T02:23:04.726Z,1016.29
2019-05-16T02:24:04.761Z,1016.25
2019-05-16T02:25:04.709Z,1016.30
2019-05-16T02:26:04.699Z,1016.22
2019-05-16T02:27:04.689Z,1016.17
2019-05-16T02:28:04.680Z,1016.18
2019-05-16T02:29:04.669Z,1016.17
2019-05-16T02:30:04.672Z,1016.14
2019-05-16T02:31:04.658Z,1016.13
2019-05-16T02:32:04.647Z,1016.13
2019-05-16T02:33:04.655Z,1016.12
2019-05-16T02:34:05.069Z,1016.13
2019-05-16T02:35:04.629Z,1016.15
2019-05-16T02:36:04.620Z,1016.10
2019-05-16T02:37:24.200Z,1016.11
2019-05-16T02:38:04.593Z,1016.12
2019-05-16T02:39:04.590Z,1016.10
2019-05-16T02:40:04.581Z,1016.07
2019-05-16T02:41:04.571Z,1016.05
2019-05-16T02:42:04.561Z,1015.98
2019-05-16T02:43:04.564Z,1016.05
2019-05-16T02:44:04.541Z,1016.08
2019-05-16T02:45:04.537Z,1016.07
2019-05-16T02:46:04.535Z,1016.04
2019-05-16T02:47:04.515Z,1016.04
2019-05-16T02:48:04.508Z,1015.96
2019-05-16T02:49:04.504Z,1015.93
2019-05-16T02:50:04.500Z,1015.96
2019-05-16T02:51:04.495Z,1015.99
2019-05-16T02:52:04.484Z,1015.99
2019-05-16T02:53:04.470Z,1015.97
2019-05-16T02:54:04.460Z,1015.99
2019-05-16T02:55:04.455Z,1015.94
2019-05-16T02:56:04.448Z,1015.96
2019-05-16T02:57:04.441Z,1015.96
2019-05-16T02:58:04.428Z,1015.94
2019-05-16T02:59:04.416Z,1015.96
2019-05-16T03:00:04.415Z,1015.95
2019-05-16T03:01:04.408Z,1015.91
2019-05-16T03:02:04.395Z,1015.91
2019-05-16T03:03:04.389Z,1015.98
2019-05-16T03:04:04.380Z,1015.96
2019-05-16T03:05:04.370Z,1015.95
2019-05-16T03:06:04.357Z,1015.93
2019-05-16T03:07:04.353Z,1015.92
2019-05-16T03:08:04.348Z,1015.92
2019-05-16T03:09:05.387Z,1015.89
2019-05-16T03:10:04.335Z,1015.88
2019-05-16T03:11:04.320Z,1015.89
2019-05-16T03:12:04.312Z,1015.85
2019-05-16T03:13:04.327Z,1015.89
2019-05-16T03:14:04.300Z,1015.84
2019-05-16T03:15:04.290Z,1015.89
2019-05-16T03:16:04.282Z,1015.83
2019-05-16T03:17:04.267Z,1015.83
2019-05-16T03:18:04.794Z,1015.84
2019-05-16T03:19:04.253Z,1015.84
2019-05-16T03:20:04.243Z,1015.81
2019-05-16T03:21:04.244Z,1015.83
2019-05-16T03:22:04.233Z,1015.81
2019-05-16T03:23:04.232Z,1015.77
2019-05-16T03:24:04.221Z,1015.81
2019-05-16T03:25:04.208Z,1015.79
2019-05-16T03:26:04.198Z,1015.77
2019-05-16T03:27:04.196Z,1015.73
2019-05-16T03:28:04.183Z,1015.77
2019-05-16T03:29:04.188Z,1015.75
2019-05-16T03:30:04.165Z,1015.74
2019-05-16T03:31:05.634Z,1015.73
2019-05-16T03:32:04.152Z,1015.75
2019-05-16T03:33:05.624Z,1015.75
2019-05-16T03:34:07.604Z,1015.74
2019-05-16T03:35:05.680Z,1015.73
2019-05-16T03:36:05.100Z,1015.76
2019-05-16T03:37:05.075Z,1015.77
2019-05-16T03:38:05.494Z,1015.73
2019-05-16T03:39:04.095Z,1015.73
2019-05-16T03:40:04.086Z,1015.74
2019-05-16T03:41:04.083Z,1015.73
2019-05-16T03:42:04.076Z,1015.66
2019-05-16T03:43:04.064Z,1015.69
2019-05-16T03:44:04.054Z,1015.67
2019-05-16T03:45:04.050Z,1015.64
2019-05-16T03:46:04.049Z,1015.66
2019-05-16T03:47:04.034Z,1015.67
2019-05-16T03:48:04.033Z,1015.60
2019-05-16T03:49:04.017Z,1015.66
2019-05-16T03:50:04.015Z,1015.63
2019-05-16T03:51:03.998Z,1015.62
2019-05-16T03:52:04.001Z,1015.61
2019-05-16T03:53:03.997Z,1015.64
2019-05-16T03:54:03.983Z,1015.62
2019-05-16T03:55:03.966Z,1015.55
2019-05-16T03:56:03.966Z,1015.58
2019-05-16T03:57:03.951Z,1015.60
2019-05-16T03:58:03.939Z,1015.59
2019-05-16T03:59:03.943Z,1015.57
2019-05-16T04:00:03.927Z,1015.57
2019-05-16T04:01:03.918Z,1015.62
2019-05-16T04:02:03.908Z,1015.61
2019-05-16T04:03:03.904Z,1015.60
2019-05-16T04:04:03.896Z,1015.54
2019-05-16T04:05:03.888Z,1015.59
2019-05-16T04:06:03.928Z,1015.56
2019-05-16T04:07:03.876Z,1015.55
2019-05-16T04:08:15.244Z,1015.58
2019-05-16T04:09:03.855Z,1015.56
2019-05-16T04:10:03.847Z,1015.56
2019-05-16T04:11:03.839Z,1015.60
2019-05-16T04:12:03.828Z,1015.56
2019-05-16T04:13:03.854Z,1015.58
2019-05-16T04:14:03.820Z,1015.59
2019-05-16T04:15:03.805Z,1015.59
2019-05-16T04:16:03.802Z,1015.56
2019-05-16T04:17:03.792Z,1015.60
2019-05-16T04:18:03.786Z,1015.58
2019-05-16T04:19:03.780Z,1015.60
2019-05-16T04:20:03.770Z,1015.55
2019-05-16T04:21:03.757Z,1015.62
2019-05-16T04:22:03.752Z,1015.63
2019-05-16T04:23:03.747Z,1015.60
2019-05-16T04:24:03.754Z,1015.60
2019-05-16T04:25:03.730Z,1015.57
2019-05-16T04:26:03.724Z,1015.55
2019-05-16T04:27:03.715Z,1015.56
2019-05-16T04:28:03.706Z,1015.56
2019-05-16T04:29:03.695Z,1015.55
2019-05-16T04:30:03.684Z,1015.55
2019-05-16T04:31:03.683Z,1015.51
2019-05-16T04:32:03.676Z,1015.50
2019-05-16T04:33:03.661Z,1015.54
2019-05-16T04:34:03.651Z,1015.57
2019-05-16T04:35:03.648Z,1015.55
2019-05-16T04:36:03.642Z,1015.54
2019-05-16T04:37:03.635Z,1015.58
2019-05-16T04:38:03.628Z,1015.56
2019-05-16T04:39:03.621Z,1015.63
2019-05-16T04:40:03.612Z,1015.58
2019-05-16T04:41:03.601Z,1015.62
2019-05-16T04:42:03.593Z,1015.61
2019-05-16T04:43:03.581Z,1015.55
2019-05-16T04:44:04.856Z,1015.59
2019-05-16T04:45:03.572Z,1015.63
2019-05-16T04:46:03.562Z,1015.63
2019-05-16T04:47:03.551Z,1015.57
2019-05-16T04:48:03.546Z,1015.60
2019-05-16T04:49:03.547Z,1015.58
2019-05-16T04:50:03.535Z,1015.59
2019-05-16T04:51:03.536Z,1015.56
2019-05-16T04:52:03.518Z,1015.60
2019-05-16T04:53:03.509Z,1015.59
2019-05-16T04:54:07.189Z,1015.55
2019-05-16T04:55:03.489Z,1015.59
2019-05-16T04:56:03.481Z,1015.49
2019-05-16T04:57:03.480Z,1015.57
2019-05-16T04:58:03.471Z,1015.54
2019-05-16T04:59:03.469Z,1015.57
2019-05-16T05:00:03.462Z,1015.56
2019-05-16T05:01:03.447Z,1015.58
2019-05-16T05:02:03.440Z,1015.60
2019-05-16T05:03:03.437Z,1015.57
2019-05-16T05:04:10.865Z,1015.58
2019-05-16T05:05:03.421Z,1015.52
2019-05-16T05:06:03.408Z,1015.56
2019-05-16T05:07:03.398Z,1015.55
2019-05-16T05:08:03.393Z,1015.59
2019-05-16T05:09:03.743Z,1015.58
2019-05-16T05:10:03.386Z,1015.47
2019-05-16T05:11:03.372Z,1015.49
2019-05-16T05:12:04.611Z,1015.48
2019-05-16T05:13:03.357Z,1015.46
2019-05-16T05:14:03.348Z,1015.43
2019-05-16T05:15:03.377Z,1015.45
2019-05-16T05:16:03.336Z,1015.43
2019-05-16T05:17:05.378Z,1015.44
2019-05-16T05:18:03.329Z,1015.41
2019-05-16T05:19:03.325Z,1015.42
2019-05-16T05:20:03.308Z,1015.44
2019-05-16T05:21:03.307Z,1015.44
2019-05-16T05:22:03.298Z,1015.39
2019-05-16T05:23:03.296Z,1015.44
2019-05-16T05:24:03.279Z,1015.40
2019-05-16T05:25:03.270Z,1015.40
2019-05-16T05:26:03.261Z,1015.40
2019-05-16T05:27:03.257Z,1015.43
2019-05-16T05:28:03.250Z,1015.41
2019-05-16T05:29:03.246Z,1015.41
2019-05-16T05:30:03.239Z,1015.43
2019-05-16T05:31:03.235Z,1015.41
2019-05-16T05:32:04.766Z,1015.41
2019-05-16T05:33:03.217Z,1015.40
2019-05-16T05:34:03.208Z,1015.36
2019-05-16T05:35:03.206Z,1015.44
2019-05-16T05:36:03.201Z,1015.38
2019-05-16T05:37:03.187Z,1015.34
2019-05-16T05:38:03.181Z,1015.39
2019-05-16T05:39:11.629Z,1015.32
2019-05-16T05:40:03.165Z,1015.36
2019-05-16T05:41:03.162Z,1015.35
2019-05-16T05:42:03.154Z,1015.36
2019-05-16T05:43:03.171Z,1015.34
2019-05-16T05:44:03.141Z,1015.39
2019-05-16T05:45:03.128Z,1015.34
2019-05-16T05:46:03.122Z,1015.34
2019-05-16T05:47:03.125Z,1015.34
2019-05-16T05:48:03.111Z,1015.36
2019-05-16T05:49:03.106Z,1015.36
2019-05-16T05:50:03.101Z,1015.44
2019-05-16T05:51:03.090Z,1015.39
2019-05-16T05:52:03.082Z,1015.42
2019-05-16T05:53:03.085Z,1015.40
2019-05-16T05:54:03.072Z,1015.40
2019-05-16T05:55:03.064Z,1015.42
2019-05-16T05:56:03.063Z,1015.44
2019-05-16T05:57:03.046Z,1015.43
2019-05-16T05:58:03.074Z,1015.42
2019-05-16T05:59:03.035Z,1015.42
2019-05-16T06:00:03.027Z,1015.46
2019-05-16T06:01:03.031Z,1015.42
2019-05-16T06:02:03.018Z,1015.42
2019-05-16T06:03:03.009Z,1015.47
2019-05-16T06:04:02.999Z,1015.47
2019-05-16T06:05:02.988Z,1015.46
2019-05-16T06:06:02.984Z,1015.50
2019-05-16T06:07:02.984Z,1015.47
2019-05-16T06:08:02.973Z,1015.57
2019-05-16T06:09:02.977Z,1015.50
2019-05-16T06:10:02.961Z,1015.50
2019-05-16T06:11:02.952Z,1015.53
2019-05-16T06:12:02.945Z,1015.52
2019-05-16T06:13:02.943Z,1015.48
2019-05-16T06:14:02.942Z,1015.56
2019-05-16T06:15:08.436Z,1015.51
2019-05-16T06:16:02.921Z,1015.57
2019-05-16T06:17:02.911Z,1015.51
2019-05-16T06:18:02.905Z,1015.53
2019-05-16T06:19:02.896Z,1015.48
2019-05-16T06:20:02.895Z,1015.51
2019-05-16T06:21:02.886Z,1015.50
2019-05-16T06:22:02.885Z,1015.54
2019-05-16T06:23:02.870Z,1015.49
2019-05-16T06:24:02.868Z,1015.45
2019-05-16T06:25:02.862Z,1015.49
2019-05-16T06:26:02.858Z,1015.53
2019-05-16T06:27:02.853Z,1015.49
2019-05-16T06:28:02.846Z,1015.51
2019-05-16T06:29:02.835Z,1015.51
2019-05-16T06:30:02.831Z,1015.55
2019-05-16T06:31:02.882Z,1015.59
2019-05-16T06:32:02.817Z,1015.58
2019-05-16T06:33:02.814Z,1015.57
2019-05-16T06:34:08.555Z,1015.55
2019-05-16T06:35:02.802Z,1015.56
2019-05-16T06:36:02.795Z,1015.55
2019-05-16T06:37:02.852Z,1015.41
2019-05-16T06:38:02.777Z,1015.48
2019-05-16T06:39:02.784Z,1015.38
2019-05-16T06:40:02.769Z,1015.43
2019-05-16T06:41:02.761Z,1015.41
2019-05-16T06:42:02.756Z,1015.36
2019-05-16T06:43:02.812Z,1015.40
2019-05-16T06:44:02.749Z,1015.32
2019-05-16T06:45:02.747Z,1015.37
2019-05-16T06:46:02.739Z,1015.40
2019-05-16T06:47:16.053Z,1015.35
2019-05-16T06:48:02.728Z,1015.34
2019-05-16T06:49:02.722Z,1015.38
2019-05-16T06:50:02.714Z,1015.37
2019-05-16T06:51:03.243Z,1015.32
2019-05-16T06:52:02.702Z,1015.34
2019-05-16T06:53:02.698Z,1015.36
2019-05-16T06:54:02.694Z,1015.32
2019-05-16T06:55:02.685Z,1015.31
2019-05-16T06:56:02.678Z,1015.30
2019-05-16T06:57:02.681Z,1015.26
2019-05-16T06:58:02.670Z,1015.33
2019-05-16T06:59:02.669Z,1015.25
2019-05-16T07:00:02.663Z,1015.23
2019-05-16T07:01:03.696Z,1015.20
2019-05-16T07:02:02.648Z,1015.25
2019-05-16T07:03:02.644Z,1015.23
2019-05-16T07:04:04.952Z,1015.21
2019-05-16T07:05:02.636Z,1015.25
2019-05-16T07:06:02.631Z,1015.23
2019-05-16T07:07:03.253Z,1015.17
2019-05-16T07:08:02.617Z,1015.13
2019-05-16T07:09:02.606Z,1015.19
2019-05-16T07:10:04.684Z,1015.13
2019-05-16T07:11:02.600Z,1015.22
2019-05-16T07:12:02.594Z,1015.19
2019-05-16T07:13:02.584Z,1015.25
2019-05-16T07:14:02.578Z,1015.19
2019-05-16T07:15:02.580Z,1015.19
2019-05-16T07:16:02.571Z,1015.11
2019-05-16T07:17:02.568Z,1015.12
2019-05-16T07:18:02.570Z,1015.13
2019-05-16T07:19:02.557Z,1015.12
2019-05-16T07:20:02.552Z,1015.11
2019-05-16T07:21:02.549Z,1015.15
2019-05-16T07:22:02.537Z,1015.15
2019-05-16T07:23:02.530Z,1015.08
2019-05-16T07:24:02.523Z,1015.14
2019-05-16T07:25:02.525Z,1015.07
2019-05-16T07:26:02.516Z,1015.14
2019-05-16T07:27:02.506Z,1015.14
2019-05-16T07:28:02.499Z,1015.12
2019-05-16T07:29:02.498Z,1015.06
2019-05-16T07:30:02.561Z,1015.09
2019-05-16T07:31:14.531Z,1015.08
2019-05-16T07:32:02.485Z,1015.06
2019-05-16T07:33:02.477Z,1015.03
2019-05-16T07:34:02.486Z,1015.03
2019-05-16T07:35:02.730Z,1015.04
2019-05-16T07:36:02.471Z,1015.02
2019-05-16T07:37:02.463Z,1015.03
2019-05-16T07:38:02.454Z,1015.05
2019-05-16T07:39:02.444Z,1015.02
2019-05-16T07:40:16.004Z,1015.06
2019-05-16T07:41:02.430Z,1015.01
2019-05-16T07:42:02.431Z,1015.02
2019-05-16T07:43:02.423Z,1014.97
2019-05-16T07:44:02.421Z,1014.96
2019-05-16T07:45:02.406Z,1014.99
2019-05-16T07:46:02.401Z,1014.95
2019-05-16T07:47:02.401Z,1014.95
2019-05-16T07:48:02.392Z,1014.93
2019-05-16T07:49:02.391Z,1014.89
2019-05-16T07:50:02.383Z,1014.91
2019-05-16T07:51:02.400Z,1014.91
2019-05-16T07:52:02.379Z,1014.89
2019-05-16T07:53:02.362Z,1014.89
2019-05-16T07:54:02.358Z,1014.87
2019-05-16T07:55:03.936Z,1014.91
2019-05-16T07:56:02.343Z,1014.82
2019-05-16T07:57:16.214Z,1014.82
2019-05-16T07:58:02.337Z,1014.81
2019-05-16T07:59:02.329Z,1014.85
2019-05-16T08:00:02.321Z,1014.86
2019-05-16T08:01:07.623Z,1014.79
2019-05-16T08:02:02.313Z,1014.82
2019-05-16T08:03:02.311Z,1014.82
2019-05-16T08:04:02.334Z,1014.83
2019-05-16T08:05:02.295Z,1014.80
2019-05-16T08:06:02.294Z,1014.81
2019-05-16T08:07:05.616Z,1014.80
2019-05-16T08:08:02.276Z,1014.76
2019-05-16T08:09:02.275Z,1014.75
2019-05-16T08:10:02.268Z,1014.75
2019-05-16T08:11:02.265Z,1014.79
2019-05-16T08:12:05.734Z,1014.74
2019-05-16T08:13:03.507Z,1014.72
2019-05-16T08:14:02.244Z,1014.77
2019-05-16T08:15:02.267Z,1014.74
2019-05-16T08:16:02.240Z,1014.71
2019-05-16T08:17:02.227Z,1014.73
2019-05-16T08:19:02.213Z,1014.73
2019-05-16T08:20:02.205Z,1014.74
2019-05-16T08:21:02.206Z,1014.72
2019-05-16T08:22:02.199Z,1014.69
2019-05-16T08:23:02.194Z,1014.65
2019-05-16T08:24:07.437Z,1014.68
2019-05-16T08:25:02.180Z,1014.62
2019-05-16T08:26:02.178Z,1014.66
2019-05-16T08:27:02.182Z,1014.69
2019-05-16T08:28:02.164Z,1014.66
2019-05-16T08:29:02.309Z,1014.62
2019-05-16T08:30:02.717Z,1014.64
2019-05-16T08:31:02.193Z,1014.58
2019-05-16T08:32:02.431Z,1014.64
2019-05-16T08:33:02.733Z,1014.63
2019-05-16T08:34:02.135Z,1014.64
2019-05-16T08:35:02.171Z,1014.66
2019-05-16T08:36:07.859Z,1014.59
2019-05-16T08:37:02.107Z,1014.62
2019-05-16T08:38:02.103Z,1014.64
2019-05-16T08:39:02.096Z,1014.60
2019-05-16T08:40:02.098Z,1014.55
2019-05-16T08:41:11.557Z,1014.57
2019-05-16T08:42:08.006Z,1014.54
2019-05-16T08:43:02.084Z,1014.56
2019-05-16T08:44:02.073Z,1014.53
2019-05-16T08:45:02.299Z,1014.50
2019-05-16T08:46:02.061Z,1014.51
2019-05-16T08:47:06.061Z,1014.44
2019-05-16T08:48:02.059Z,1014.46
2019-05-16T08:49:02.046Z,1014.46
2019-05-16T08:50:02.042Z,1014.41
2019-05-16T08:50:05.719Z,1014.75
2019-05-16T08:51:02.757Z,1014.39
2019-05-16T08:52:02.022Z,1014.39
2019-05-16T08:53:02.939Z,1014.39
2019-05-16T08:54:02.049Z,1014.38
2019-05-16T08:55:03.431Z,1014.39
2019-05-16T08:56:02.747Z,1014.32
2019-05-16T08:58:02.880Z,1014.35
2019-05-16T08:59:03.444Z,1014.35
2019-05-16T09:00:02.008Z,1014.40
2019-05-16T09:01:02.508Z,1014.37
2019-05-16T09:02:03.182Z,1014.34
2019-05-16T09:03:02.027Z,1014.39
2019-05-16T09:04:01.998Z,1014.39
2019-05-16T09:05:05.166Z,1014.41
2019-05-16T09:07:02.297Z,1014.41
2019-05-16T09:08:01.932Z,1014.40
2019-05-16T09:09:20.577Z,1014.39
2019-05-16T09:10:01.926Z,1014.40
2019-05-16T09:10:19.014Z,1014.37
2019-05-16T09:10:21.441Z,1014.33
2019-05-16T09:11:15.890Z,1014.44
2019-05-16T09:12:01.906Z,1014.40
2019-05-16T09:13:01.904Z,1014.42
2019-05-16T09:14:02.013Z,1014.40
2019-05-16T09:15:01.890Z,1014.40
2019-05-16T09:16:01.888Z,1014.39
2019-05-16T09:17:01.875Z,1014.28
2019-05-16T09:18:01.972Z,1014.31
2019-05-16T09:19:01.876Z,1014.35
2019-05-16T09:20:01.862Z,1014.29
2019-05-16T09:21:01.854Z,1014.29
2019-05-16T09:22:01.851Z,1014.26
2019-05-16T09:23:01.847Z,1014.27
2019-05-16T09:24:01.838Z,1014.24
2019-05-16T09:25:01.866Z,1014.24
2019-05-16T09:26:01.871Z,1014.25
2019-05-16T09:27:01.897Z,1014.22
2019-05-16T09:28:01.819Z,1014.23
2019-05-16T09:29:01.835Z,1014.18
2019-05-16T09:30:01.804Z,1014.17
2019-05-16T09:31:01.796Z,1014.13
2019-05-16T09:32:12.553Z,1014.11
2019-05-16T09:33:01.790Z,1014.13
2019-05-16T09:34:01.785Z,1014.15
2019-05-16T09:35:01.779Z,1014.10
2019-05-16T09:36:01.768Z,1014.10
2019-05-16T09:37:02.119Z,1014.08
2019-05-16T09:38:01.765Z,1014.05
2019-05-16T09:39:01.760Z,1014.03
2019-05-16T09:40:01.758Z,1014.04
2019-05-16T09:41:01.747Z,1013.99
2019-05-16T09:42:01.823Z,1014.01
2019-05-16T09:43:01.754Z,1014.00
2019-05-16T09:44:01.733Z,1013.96
2019-05-16T09:45:01.730Z,1013.98
2019-05-16T09:46:03.941Z,1013.96
2019-05-16T09:47:01.717Z,1013.98
2019-05-16T09:48:01.715Z,1013.98
2019-05-16T09:49:15.757Z,1014.01
2019-05-16T09:50:01.699Z,1013.94
2019-05-16T09:51:01.698Z,1013.95
2019-05-16T09:52:01.696Z,1013.93
2019-05-16T09:53:01.685Z,1013.97
2019-05-16T09:54:01.687Z,1013.96
2019-05-16T09:55:01.690Z,1013.94
2019-05-16T09:56:01.671Z,1013.94
2019-05-16T09:57:01.671Z,1013.98
2019-05-16T09:58:01.668Z,1014.00
2019-05-16T09:59:01.662Z,1014.04
2019-05-16T10:00:01.671Z,1014.09
2019-05-16T10:01:01.649Z,1014.08
2019-05-16T10:02:01.670Z,1014.04
2019-05-16T10:03:01.658Z,1014.08
2019-05-16T10:04:01.633Z,1014.02
2019-05-16T10:05:01.637Z,1014.01
2019-05-16T10:06:01.634Z,1014.04
2019-05-16T10:07:01.623Z,1014.13
2019-05-16T10:08:01.617Z,1014.14
2019-05-16T10:09:01.617Z,1014.19
2019-05-16T10:10:01.620Z,1014.18
2019-05-16T10:11:01.614Z,1014.29
2019-05-16T10:12:11.331Z,1014.36
2019-05-16T10:13:01.604Z,1014.38
2019-05-16T10:14:01.600Z,1014.41
2019-05-16T10:15:01.594Z,1014.38
2019-05-16T10:16:01.673Z,1014.32
2019-05-16T10:17:01.594Z,1014.33
2019-05-16T10:18:01.601Z,1014.36
2019-05-16T10:19:01.595Z,1014.42
2019-05-16T10:20:01.610Z,1014.35
2019-05-16T10:21:01.591Z,1014.46
2019-05-16T10:22:01.588Z,1014.36
2019-05-16T10:23:01.702Z,1014.25
2019-05-16T10:24:01.593Z,1014.38
2019-05-16T10:25:01.594Z,1014.24
2019-05-16T10:26:01.593Z,1014.22
2019-05-16T10:27:01.592Z,1014.18
2019-05-16T10:28:01.593Z,1014.15
2019-05-16T10:29:01.599Z,1014.13
2019-05-16T10:30:01.887Z,1014.14
2019-05-16T10:31:01.605Z,1014.12
2019-05-16T10:32:01.612Z,1014.14
2019-05-16T10:33:01.606Z,1014.10
2019-05-16T10:34:01.606Z,1014.06
2019-05-16T10:35:01.614Z,1014.05
2019-05-16T10:36:01.615Z,1014.07
2019-05-16T10:37:01.622Z,1014.01
2019-05-16T10:38:01.624Z,1014.03
2019-05-16T10:39:01.624Z,1014.01
2019-05-16T10:40:01.624Z,1014.01
2019-05-16T10:41:01.637Z,1013.98
2019-05-16T10:42:01.633Z,1013.93
2019-05-16T10:43:01.635Z,1013.92
2019-05-16T10:44:01.636Z,1014.02
2019-05-16T10:45:01.649Z,1013.95
2019-05-16T10:46:01.637Z,1013.93
2019-05-16T10:47:01.640Z,1013.97
2019-05-16T10:48:01.639Z,1013.90
2019-05-16T10:49:01.659Z,1013.88
2019-05-16T10:50:01.649Z,1013.92
2019-05-16T10:51:01.657Z,1013.94
2019-05-16T10:52:01.653Z,1013.79
2019-05-16T10:53:22.348Z,1013.80
2019-05-16T10:54:09.458Z,1013.88
2019-05-16T10:55:02.736Z,1013.79
2019-05-16T10:56:01.701Z,1013.75
2019-05-16T10:57:01.767Z,1013.81
2019-05-16T10:58:01.658Z,1013.86
2019-05-16T10:59:38.419Z,1013.81
2019-05-16T11:00:12.396Z,1013.86
2019-05-16T11:01:22.570Z,1013.95
2019-05-16T11:02:01.668Z,1013.86
2019-05-16T11:03:01.737Z,1013.87
2019-05-16T11:04:01.667Z,1013.96
2019-05-16T11:05:20.528Z,1013.80
2019-05-16T11:06:05.666Z,1013.82
2019-05-16T11:07:01.673Z,1013.78
2019-05-16T11:08:01.984Z,1013.72
2019-05-16T11:09:01.683Z,1013.74
2019-05-16T11:10:03.428Z,1013.81
2019-05-16T11:11:01.681Z,1013.88
2019-05-16T11:12:01.684Z,1013.74
2019-05-16T11:13:01.691Z,1013.73
2019-05-16T11:14:01.696Z,1013.78
2019-05-16T11:15:01.700Z,1013.71
2019-05-16T11:16:01.699Z,1013.70
2019-05-16T11:17:01.697Z,1013.69
2019-05-16T11:18:01.711Z,1013.57
2019-05-16T11:19:14.136Z,1013.46
2019-05-16T11:20:01.717Z,1013.43
2019-05-16T11:21:01.713Z,1013.55
2019-05-16T11:22:01.720Z,1013.52
2019-05-16T11:23:01.734Z,1013.47
2019-05-16T11:24:01.723Z,1013.43
2019-05-16T11:25:01.730Z,1013.50
2019-05-16T11:26:01.734Z,1013.47
2019-05-16T11:27:01.771Z,1013.41
2019-05-16T11:28:01.733Z,1013.52
2019-05-16T11:29:01.742Z,1013.49
2019-05-16T11:30:01.745Z,1013.48
2019-05-16T11:31:03.853Z,1013.46
2019-05-16T11:32:01.759Z,1013.49
2019-05-16T11:33:01.752Z,1013.42
2019-05-16T11:34:01.752Z,1013.37
2019-05-16T11:35:01.756Z,1013.36
2019-05-16T11:36:01.758Z,1013.44
2019-05-16T11:37:01.766Z,1013.36
2019-05-16T11:38:01.775Z,1013.24
2019-05-16T11:39:02.099Z,1013.24
2019-05-16T11:40:01.770Z,1013.20
2019-05-16T11:41:01.767Z,1013.17
2019-05-16T11:42:01.771Z,1013.15
2019-05-16T11:43:09.198Z,1013.23
2019-05-16T11:44:01.777Z,1013.12
2019-05-16T11:45:01.799Z,1013.11
2019-05-16T11:46:01.776Z,1013.20
2019-05-16T11:47:01.781Z,1013.18
2019-05-16T11:48:01.784Z,1013.16
2019-05-16T11:49:01.791Z,1013.12
2019-05-16T11:50:01.792Z,1013.08
2019-05-16T11:51:01.791Z,1013.05
2019-05-16T11:52:01.791Z,1013.06
2019-05-16T11:53:01.788Z,1013.07
2019-05-16T11:54:01.788Z,1013.02
2019-05-16T11:55:01.798Z,1012.98
2019-05-16T11:56:02.238Z,1013.01
2019-05-16T11:57:01.792Z,1012.95
2019-05-16T11:58:01.793Z,1012.94
2019-05-16T11:59:01.791Z,1012.88
2019-05-16T12:00:01.789Z,1012.92
2019-05-16T12:01:01.795Z,1012.95
2019-05-16T12:02:01.809Z,1012.89
2019-05-16T12:03:01.798Z,1012.92
2019-05-16T12:04:01.801Z,1012.93
2019-05-16T12:05:01.797Z,1012.93